sensor_id;sensor_type;location;lat;lon;timestamp;pressure;altitude;pressure_sealevel;temperature;humidity
50394;BME280;36308;46.312;25.288;2023-11-21T00:01:17;95673.97;;;4.76;77.31
50394;BME280;36308;46.312;25.288;2023-11-21T00:03:42;95679.41;;;4.81;77.35
50394;BME280;36308;46.312;25.288;2023-11-21T00:06:09;95680.25;;;4.82;76.91
50394;BME280;36308;46.312;25.288;2023-11-21T00:08:34;95681.03;;;4.82;76.94
50394;BME280;36308;46.312;25.288;2023-11-21T00:11:00;95681.03;;;4.82;77.27
50394;BME280;36308;46.312;25.288;2023-11-21T00:13:28;95672.00;;;4.83;76.89
50394;BME280;36308;46.312;25.288;2023-11-21T00:15:54;95681.03;;;4.82;77.17
50394;BME280;36308;46.312;25.288;2023-11-21T00:18:20;95681.03;;;4.82;77.01
50394;BME280;36308;46.312;25.288;2023-11-21T00:20:46;95678.97;;;4.84;77.03
50394;BME280;36308;46.312;25.288;2023-11-21T00:23:11;95682.66;;;4.83;76.88
50394;BME280;36308;46.312;25.288;2023-11-21T00:25:37;95680.56;;;4.85;77.45
50394;BME280;36308;46.312;25.288;2023-11-21T00:28:03;95685.91;;;4.85;77.12
50394;BME280;36308;46.312;25.288;2023-11-21T00:30:28;95679.97;;;4.83;76.99
50394;BME280;36308;46.312;25.288;2023-11-21T00:32:55;95678.16;;;4.84;77.12
50394;BME280;36308;46.312;25.288;2023-11-21T00:35:21;95682.19;;;4.86;77.33
50394;BME280;36308;46.312;25.288;2023-11-21T00:37:46;95679.75;;;4.85;77.05
50394;BME280;36308;46.312;25.288;2023-11-21T00:40:12;95671.56;;;4.86;77.29
50394;BME280;36308;46.312;25.288;2023-11-21T00:42:40;95674.22;;;4.86;77.08
50394;BME280;36308;46.312;25.288;2023-11-21T00:45:06;95672.00;;;4.83;77.13
50394;BME280;36308;46.312;25.288;2023-11-21T00:50:35;95679.53;;;4.86;77.41
50394;BME280;36308;46.312;25.288;2023-11-21T00:53:01;95680.56;;;4.85;77.42
50394;BME280;36308;46.312;25.288;2023-11-21T00:55:27;95677.69;;;4.87;77.46
50394;BME280;36308;46.312;25.288;2023-11-21T00:57:53;95683.81;;;4.88;77.45
50394;BME280;36308;46.312;25.288;2023-11-21T01:00:18;95665.16;;;4.88;77.34
50394;BME280;36308;46.312;25.288;2023-11-21T01:02:44;95665.41;;;4.86;77.34
50394;BME280;36308;46.312;25.288;2023-11-21T01:05:10;95676.88;;;4.86;77.63
50394;BME280;36308;46.312;25.288;2023-11-21T01:07:36;95677.69;;;4.87;77.60
50394;BME280;36308;46.312;25.288;2023-11-21T01:10:03;95676.41;;;4.90;77.73
50394;BME280;36308;46.312;25.288;2023-11-21T01:12:31;95668.66;;;4.88;77.45
50394;BME280;36308;46.312;25.288;2023-11-21T01:14:56;95670.50;;;4.88;77.42
50394;BME280;36308;46.312;25.288;2023-11-21T01:17:26;95670.28;;;4.89;77.05
50394;BME280;36308;46.312;25.288;2023-11-21T01:23:14;95660.09;;;4.86;77.25
50394;BME280;36308;46.312;25.288;2023-11-21T01:26:04;95657.66;;;4.84;77.22
50394;BME280;36308;46.312;25.288;2023-11-21T01:28:29;95662.97;;;4.84;77.23
50394;BME280;36308;46.312;25.288;2023-11-21T01:30:55;95659.94;;;4.81;77.29
50394;BME280;36308;46.312;25.288;2023-11-21T01:33:22;95656.00;;;4.83;77.54
50394;BME280;36308;46.312;25.288;2023-11-21T01:35:50;95645.34;;;4.83;77.71
50394;BME280;36308;46.312;25.288;2023-11-21T01:38:15;95650.47;;;4.85;77.43
50394;BME280;36308;46.312;25.288;2023-11-21T01:40:42;95654.50;;;4.88;77.55
50394;BME280;36308;46.312;25.288;2023-11-21T01:43:08;95643.75;;;4.82;77.51
50394;BME280;36308;46.312;25.288;2023-11-21T01:45:33;95655.78;;;4.85;77.27
50394;BME280;36308;46.312;25.288;2023-11-21T01:48:00;95648.03;;;4.83;77.82
50394;BME280;36308;46.312;25.288;2023-11-21T01:50:28;95649.19;;;4.88;77.60
50394;BME280;36308;46.312;25.288;2023-11-21T01:52:53;95648.59;;;4.85;77.58
50394;BME280;36308;46.312;25.288;2023-11-21T01:55:19;95641.09;;;4.82;77.63
50394;BME280;36308;46.312;25.288;2023-11-21T01:57:46;95649.19;;;4.88;77.30
50394;BME280;36308;46.312;25.288;2023-11-21T02:00:12;95648.97;;;4.89;77.31
50394;BME280;36308;46.312;25.288;2023-11-21T02:02:48;95646.53;;;4.88;77.90
50394;BME280;36308;46.312;25.288;2023-11-21T02:05:18;95654.88;;;4.91;77.59
50394;BME280;36308;46.312;25.288;2023-11-21T02:07:45;95651.41;;;4.91;77.86
50394;BME280;36308;46.312;25.288;2023-11-21T02:10:15;95639.09;;;4.90;77.51
50394;BME280;36308;46.312;25.288;2023-11-21T02:12:42;95634.34;;;4.92;77.95
50394;BME280;36308;46.312;25.288;2023-11-21T02:15:12;95627.19;;;4.92;77.78
50394;BME280;36308;46.312;25.288;2023-11-21T02:17:56;95636.00;;;4.93;77.89
50394;BME280;36308;46.312;25.288;2023-11-21T02:20:24;95638.66;;;4.93;77.75
50394;BME280;36308;46.312;25.288;2023-11-21T02:22:55;95638.19;;;4.96;77.67
50394;BME280;36308;46.312;25.288;2023-11-21T02:25:32;95636.56;;;4.95;78.13
50394;BME280;36308;46.312;25.288;2023-11-21T02:28:02;95634.94;;;4.94;77.66
50394;BME280;36308;46.312;25.288;2023-11-21T02:30:28;95633.69;;;4.96;77.80
50394;BME280;36308;46.312;25.288;2023-11-21T02:32:55;95639.59;;;4.98;77.68
50394;BME280;36308;46.312;25.288;2023-11-21T02:35:24;95643.06;;;4.99;77.68
50394;BME280;36308;46.312;25.288;2023-11-21T02:37:53;95641.19;;;4.99;78.01
50394;BME280;36308;46.312;25.288;2023-11-21T02:40:19;95643.88;;;4.99;78.00
50394;BME280;36308;46.312;25.288;2023-11-21T02:42:50;95642.59;;;5.02;77.93
50394;BME280;36308;46.312;25.288;2023-11-21T02:45:21;95646.09;;;5.02;77.70
50394;BME280;36308;46.312;25.288;2023-11-21T02:47:47;95647.91;;;5.02;78.06
50394;BME280;36308;46.312;25.288;2023-11-21T02:50:13;95651.16;;;5.04;77.72
50394;BME280;36308;46.312;25.288;2023-11-21T02:52:39;95643.41;;;5.02;77.92
50394;BME280;36308;46.312;25.288;2023-11-21T02:55:05;95648.28;;;5.05;77.90
50394;BME280;36308;46.312;25.288;2023-11-21T02:57:32;95637.72;;;4.99;77.91
50394;BME280;36308;46.312;25.288;2023-11-21T02:59:59;95648.28;;;5.05;77.60
50394;BME280;36308;46.312;25.288;2023-11-21T03:02:25;95644.22;;;5.03;77.86
50394;BME280;36308;46.312;25.288;2023-11-21T03:04:50;95641.34;;;5.04;77.95
50394;BME280;36308;46.312;25.288;2023-11-21T03:07:16;95644.56;;;5.06;77.50
50394;BME280;36308;46.312;25.288;2023-11-21T03:09:42;95650.72;;;5.07;77.78
50394;BME280;36308;46.312;25.288;2023-11-21T03:12:09;95647.47;;;5.05;77.90
50394;BME280;36308;46.312;25.288;2023-11-21T03:14:35;95658.69;;;5.07;77.68
50394;BME280;36308;46.312;25.288;2023-11-21T03:17:00;95656.03;;;5.07;77.24
50394;BME280;36308;46.312;25.288;2023-11-21T03:19:26;95649.06;;;5.06;77.90
50394;BME280;36308;46.312;25.288;2023-11-21T03:21:51;95651.75;;;5.06;77.33
50394;BME280;36308;46.312;25.288;2023-11-21T03:24:18;95663.22;;;5.06;77.47
50394;BME280;36308;46.312;25.288;2023-11-21T03:26:45;95658.69;;;5.07;77.80
50394;BME280;36308;46.312;25.288;2023-11-21T03:29:12;95658.13;;;5.05;77.51
50394;BME280;36308;46.312;25.288;2023-11-21T03:31:37;95649.56;;;5.03;77.76
50394;BME280;36308;46.312;25.288;2023-11-21T03:34:03;95650.34;;;5.03;77.60
50394;BME280;36308;46.312;25.288;2023-11-21T03:36:29;95654.41;;;5.06;77.88
50394;BME280;36308;46.312;25.288;2023-11-21T03:38:54;95658.13;;;5.05;77.57
50394;BME280;36308;46.312;25.288;2023-11-21T03:41:20;95656.03;;;5.07;77.75
50394;BME280;36308;46.312;25.288;2023-11-21T03:43:46;95649.91;;;5.06;78.21
50394;BME280;36308;46.312;25.288;2023-11-21T03:46:11;95651.50;;;5.07;77.70
50394;BME280;36308;46.312;25.288;2023-11-21T03:48:38;95654.41;;;5.06;77.89
50394;BME280;36308;46.312;25.288;2023-11-21T03:51:03;95656.25;;;5.05;77.77
50394;BME280;36308;46.312;25.288;2023-11-21T03:53:29;95669.94;;;5.09;78.17
50394;BME280;36308;46.312;25.288;2023-11-21T03:55:54;95661.38;;;5.07;77.96
50394;BME280;36308;46.312;25.288;2023-11-21T03:58:20;95660.09;;;5.10;78.08
50394;BME280;36308;46.312;25.288;2023-11-21T04:00:46;95667.84;;;5.11;78.14
50394;BME280;36308;46.312;25.288;2023-11-21T04:03:14;95652.91;;;5.10;77.70
50394;BME280;36308;46.312;25.288;2023-11-21T04:05:39;95665.41;;;5.10;77.84
50394;BME280;36308;46.312;25.288;2023-11-21T04:08:06;95669.13;;;5.09;77.82
50394;BME280;36308;46.312;25.288;2023-11-21T04:10:32;95650.22;;;5.10;78.22
50394;BME280;36308;46.312;25.288;2023-11-21T04:12:58;95662.97;;;5.08;77.84
50394;BME280;36308;46.312;25.288;2023-11-21T04:15:25;95666.34;;;5.03;78.01
50394;BME280;36308;46.312;25.288;2023-11-21T04:17:51;95662.97;;;5.08;77.87
50394;BME280;36308;46.312;25.288;2023-11-21T04:20:16;95662.97;;;5.08;77.85
50394;BME280;36308;46.312;25.288;2023-11-21T04:22:44;95665.63;;;5.08;77.78
50394;BME280;36308;46.312;25.288;2023-11-21T04:25:11;95667.50;;;5.07;78.01
50394;BME280;36308;46.312;25.288;2023-11-21T04:27:39;95673.63;;;5.08;78.18
50394;BME280;36308;46.312;25.288;2023-11-21T04:30:05;95673.41;;;5.10;78.15
50394;BME280;36308;46.312;25.288;2023-11-21T04:32:30;95683.25;;;5.09;77.98
50394;BME280;36308;46.312;25.288;2023-11-21T04:34:56;95678.97;;;5.08;77.93
50394;BME280;36308;46.312;25.288;2023-11-21T04:37:22;95678.97;;;5.08;78.17
50394;BME280;36308;46.312;25.288;2023-11-21T04:39:48;95671.56;;;5.10;78.36
50394;BME280;36308;46.312;25.288;2023-11-21T04:42:14;95674.22;;;5.10;78.29
50394;BME280;36308;46.312;25.288;2023-11-21T04:44:40;95674.78;;;5.12;78.24
50394;BME280;36308;46.312;25.288;2023-11-21T04:47:06;95677.47;;;5.12;77.96
50394;BME280;36308;46.312;25.288;2023-11-21T04:49:33;95683.84;;;5.11;78.16
50394;BME280;36308;46.312;25.288;2023-11-21T04:51:58;95675.63;;;5.13;78.05
50394;BME280;36308;46.312;25.288;2023-11-21T04:54:24;95679.31;;;5.12;78.18
50394;BME280;36308;46.312;25.288;2023-11-21T04:56:49;95675.84;;;5.11;77.69
50394;BME280;36308;46.312;25.288;2023-11-21T04:59:15;95678.50;;;5.11;78.28
50394;BME280;36308;46.312;25.288;2023-11-21T05:01:41;95674.47;;;5.09;77.89
50394;BME280;36308;46.312;25.288;2023-11-21T05:04:06;95679.78;;;5.09;77.64
50394;BME280;36308;46.312;25.288;2023-11-21T05:06:34;95668.88;;;5.10;77.98
50394;BME280;36308;46.312;25.288;2023-11-21T05:08:59;95678.50;;;5.11;78.03
50394;BME280;36308;46.312;25.288;2023-11-21T05:11:26;95669.94;;;5.09;78.15
50394;BME280;36308;46.312;25.288;2023-11-21T05:13:52;95676.88;;;5.10;78.06
50394;BME280;36308;46.312;25.288;2023-11-21T05:16:19;95678.50;;;5.11;77.78
50394;BME280;36308;46.312;25.288;2023-11-21T05:18:45;95673.63;;;5.08;77.89
50394;BME280;36308;46.312;25.288;2023-11-21T05:21:11;95687.53;;;5.10;77.89
50394;BME280;36308;46.312;25.288;2023-11-21T05:23:36;95679.31;;;5.00;77.79
50394;BME280;36308;46.312;25.288;2023-11-21T05:26:03;95691.72;;;5.06;77.71
50394;BME280;36308;46.312;25.288;2023-11-21T05:28:28;95692.19;;;5.03;77.91
50394;BME280;36308;46.312;25.288;2023-11-21T05:30:54;95686.84;;;5.03;77.77
50394;BME280;36308;46.312;25.288;2023-11-21T05:33:20;95677.13;;;4.97;77.54
50394;BME280;36308;46.312;25.288;2023-11-21T05:35:46;95694.72;;;4.98;77.29
50394;BME280;36308;46.312;25.288;2023-11-21T05:38:13;95692.53;;;4.95;77.44
50394;BME280;36308;46.312;25.288;2023-11-21T05:40:40;95690.31;;;4.92;77.10
50394;BME280;36308;46.312;25.288;2023-11-21T05:43:06;95695.88;;;4.90;77.66
50394;BME280;36308;46.312;25.288;2023-11-21T05:45:32;95695.53;;;4.86;77.58
50394;BME280;36308;46.312;25.288;2023-11-21T05:47:58;95699.22;;;4.85;77.68
50394;BME280;36308;46.312;25.288;2023-11-21T05:50:24;95701.75;;;4.80;77.65
50394;BME280;36308;46.312;25.288;2023-11-21T05:52:49;95695.84;;;4.78;77.16
50394;BME280;36308;46.312;25.288;2023-11-21T05:55:15;95691.44;;;4.72;77.49
50394;BME280;36308;46.312;25.288;2023-11-21T05:57:43;95701.28;;;4.72;76.95
50394;BME280;36308;46.312;25.288;2023-11-21T06:00:10;95701.72;;;4.69;77.56
50394;BME280;36308;46.312;25.288;2023-11-21T06:02:40;95715.75;;;4.64;77.32
50394;BME280;36308;46.312;25.288;2023-11-21T06:05:09;95717.00;;;4.61;77.57
50394;BME280;36308;46.312;25.288;2023-11-21T06:07:35;95708.06;;;4.56;77.54
50394;BME280;36308;46.312;25.288;2023-11-21T06:10:03;95704.03;;;4.53;77.51
50394;BME280;36308;46.312;25.288;2023-11-21T06:12:31;95705.88;;;4.53;77.41
50394;BME280;36308;46.312;25.288;2023-11-21T06:15:02;95709.44;;;4.47;77.30
50394;BME280;36308;46.312;25.288;2023-11-21T06:17:30;95698.81;;;4.47;77.24
50394;BME280;36308;46.312;25.288;2023-11-21T06:19:56;95704.56;;;4.43;77.24
50394;BME280;36308;46.312;25.288;2023-11-21T06:22:21;95702.97;;;4.42;77.51
50394;BME280;36308;46.312;25.288;2023-11-21T06:24:47;95691.47;;;4.30;77.45
50394;BME280;36308;46.312;25.288;2023-11-21T06:27:12;95684.75;;;4.28;77.71
50394;BME280;36308;46.312;25.288;2023-11-21T06:29:38;95704.28;;;4.33;77.94
50394;BME280;36308;46.312;25.288;2023-11-21T06:32:04;95704.53;;;4.32;78.00
50394;BME280;36308;46.312;25.288;2023-11-21T06:34:30;95715.41;;;4.30;77.84
50394;BME280;36308;46.312;25.288;2023-11-21T06:36:56;95717.47;;;4.28;77.38
50394;BME280;36308;46.312;25.288;2023-11-21T06:39:22;95717.91;;;4.25;77.44
50394;BME280;36308;46.312;25.288;2023-11-21T06:41:49;95725.31;;;4.23;77.66
50394;BME280;36308;46.312;25.288;2023-11-21T06:44:15;95723.34;;;4.18;77.61
50394;BME280;36308;46.312;25.288;2023-11-21T06:46:40;95710.34;;;4.10;77.46
50394;BME280;36308;46.312;25.288;2023-11-21T06:49:08;95719.28;;;4.16;77.19
50394;BME280;36308;46.312;25.288;2023-11-21T06:51:33;95712.19;;;4.10;77.85
50394;BME280;36308;46.312;25.288;2023-11-21T06:53:59;95710.34;;;4.10;77.88
50394;BME280;36308;46.312;25.288;2023-11-21T06:56:24;95709.53;;;4.10;77.72
50394;BME280;36308;46.312;25.288;2023-11-21T06:58:51;95701.41;;;4.04;77.63
50394;BME280;36308;46.312;25.288;2023-11-21T07:01:19;95700.22;;;4.00;77.75
50394;BME280;36308;46.312;25.288;2023-11-21T07:03:45;95716.47;;;4.11;78.17
50394;BME280;36308;46.312;25.288;2023-11-21T07:06:11;95713.22;;;4.09;78.51
50394;BME280;36308;46.312;25.288;2023-11-21T07:08:37;95723.44;;;4.12;78.52
50394;BME280;36308;46.312;25.288;2023-11-21T07:11:03;95716.03;;;4.14;78.20
50394;BME280;36308;46.312;25.288;2023-11-21T07:13:30;95720.88;;;4.17;78.81
50394;BME280;36308;46.312;25.288;2023-11-21T07:15:55;95718.22;;;4.17;79.11
50394;BME280;36308;46.312;25.288;2023-11-21T07:18:21;95719.28;;;4.16;79.18
50394;BME280;36308;46.312;25.288;2023-11-21T07:20:46;95733.28;;;4.23;78.86
50394;BME280;36308;46.312;25.288;2023-11-21T07:23:12;95734.03;;;4.30;79.08
50394;BME280;36308;46.312;25.288;2023-11-21T07:25:37;95734.63;;;4.32;79.42
50394;BME280;36308;46.312;25.288;2023-11-21T07:28:03;95724.91;;;4.38;79.44
50394;BME280;36308;46.312;25.288;2023-11-21T07:30:30;95729.25;;;4.51;80.00
50394;BME280;36308;46.312;25.288;2023-11-21T07:32:56;95734.84;;;4.61;79.90
50394;BME280;36308;46.312;25.288;2023-11-21T07:35:21;95725.22;;;4.60;80.43
50394;BME280;36308;46.312;25.288;2023-11-21T07:37:47;95707.63;;;4.71;80.47
50394;BME280;36308;46.312;25.288;2023-11-21T07:40:14;95719.03;;;4.90;80.57
50394;BME280;36308;46.312;25.288;2023-11-21T07:42:39;95732.72;;;5.05;80.76
50394;BME280;36308;46.312;25.288;2023-11-21T07:45:05;95733.34;;;5.19;81.09
50394;BME280;36308;46.312;25.288;2023-11-21T07:47:32;95733.53;;;5.29;80.65
50394;BME280;36308;46.312;25.288;2023-11-21T07:50:00;95745.72;;;5.37;80.43
50394;BME280;36308;46.312;25.288;2023-11-21T07:52:25;95722.78;;;5.36;79.77
50394;BME280;36308;46.312;25.288;2023-11-21T07:54:51;95732.63;;;5.47;79.66
50394;BME280;36308;46.312;25.288;2023-11-21T07:57:16;95732.75;;;5.52;79.72
50394;BME280;36308;46.312;25.288;2023-11-21T07:59:42;95737.84;;;5.65;80.05
50394;BME280;36308;46.312;25.288;2023-11-21T08:02:08;95733.53;;;5.76;80.23
50394;BME280;36308;46.312;25.288;2023-11-21T08:04:33;95748.69;;;5.99;80.58
50394;BME280;36308;46.312;25.288;2023-11-21T08:07:01;95737.09;;;6.05;80.30
50394;BME280;36308;46.312;25.288;2023-11-21T08:09:27;95748.66;;;6.23;79.81
50394;BME280;36308;46.312;25.288;2023-11-21T08:11:52;95750.97;;;6.31;79.06
50394;BME280;36308;46.312;25.288;2023-11-21T08:14:18;95734.78;;;6.38;78.67
50394;BME280;36308;46.312;25.288;2023-11-21T08:16:44;95736.47;;;6.56;79.04
50394;BME280;36308;46.312;25.288;2023-11-21T08:19:10;95730.88;;;6.57;78.85
50394;BME280;36308;46.312;25.288;2023-11-21T08:21:36;95744.25;;;6.74;78.45
50394;BME280;36308;46.312;25.288;2023-11-21T08:24:06;95742.34;;;6.86;78.13
50394;BME280;36308;46.312;25.288;2023-11-21T08:26:36;95743.34;;;6.97;77.78
50394;BME280;36308;46.312;25.288;2023-11-21T08:29:02;95741.31;;;7.04;77.52
50394;BME280;36308;46.312;25.288;2023-11-21T08:31:28;95740.69;;;7.14;77.32
50394;BME280;36308;46.312;25.288;2023-11-21T08:33:54;95741.41;;;7.26;77.85
50394;BME280;36308;46.312;25.288;2023-11-21T08:36:22;95738.44;;;7.45;78.19
50394;BME280;36308;46.312;25.288;2023-11-21T08:38:49;95740.19;;;7.73;78.36
50394;BME280;36308;46.312;25.288;2023-11-21T08:41:15;95731.88;;;7.92;78.00
50394;BME280;36308;46.312;25.288;2023-11-21T08:43:41;95737.38;;;8.24;77.52
50394;BME280;36308;46.312;25.288;2023-11-21T08:46:07;95721.06;;;8.47;77.68
50394;BME280;36308;46.312;25.288;2023-11-21T08:48:35;95715.41;;;8.71;77.61
50394;BME280;36308;46.312;25.288;2023-11-21T08:51:01;95725.28;;;8.98;76.64
50394;BME280;36308;46.312;25.288;2023-11-21T08:53:27;95726.81;;;9.21;75.68
50394;BME280;36308;46.312;25.288;2023-11-21T08:55:52;95720.81;;;9.41;74.72
50394;BME280;36308;46.312;25.288;2023-11-21T08:58:19;95724.19;;;9.63;74.28
50394;BME280;36308;46.312;25.288;2023-11-21T09:00:45;95732.09;;;9.85;74.49
50394;BME280;36308;46.312;25.288;2023-11-21T09:03:12;95729.78;;;10.04;74.02
50394;BME280;36308;46.312;25.288;2023-11-21T09:05:38;95725.56;;;10.24;72.77
50394;BME280;36308;46.312;25.288;2023-11-21T09:08:04;95713.28;;;10.43;71.41
50394;BME280;36308;46.312;25.288;2023-11-21T09:10:30;95718.19;;;10.62;71.17
50394;BME280;36308;46.312;25.288;2023-11-21T09:12:55;95719.03;;;10.83;70.27
50394;BME280;36308;46.312;25.288;2023-11-21T09:15:21;95720.94;;;10.98;69.65
50394;BME280;36308;46.312;25.288;2023-11-21T09:17:47;95719.59;;;11.16;68.95
50394;BME280;36308;46.312;25.288;2023-11-21T09:20:12;95708.03;;;11.30;68.10
50394;BME280;36308;46.312;25.288;2023-11-21T09:22:40;95707.50;;;11.44;66.88
50394;BME280;36308;46.312;25.288;2023-11-21T09:25:06;95710.72;;;11.56;66.51
50394;BME280;36308;46.312;25.288;2023-11-21T09:27:34;95698.31;;;11.65;66.13
50394;BME280;36308;46.312;25.288;2023-11-21T09:30:01;95686.41;;;11.82;65.21
50394;BME280;36308;46.312;25.288;2023-11-21T09:32:27;95695.53;;;12.01;65.12
50394;BME280;36308;46.312;25.288;2023-11-21T09:34:52;95692.81;;;12.11;64.45
50394;BME280;36308;46.312;25.288;2023-11-21T09:37:20;95688.44;;;12.31;64.35
50394;BME280;36308;46.312;25.288;2023-11-21T09:39:46;95683.78;;;12.42;63.96
50394;BME280;36308;46.312;25.288;2023-11-21T09:42:15;95669.97;;;12.53;62.76
50394;BME280;36308;46.312;25.288;2023-11-21T09:44:51;95684.41;;;12.73;62.06
50394;BME280;36308;46.312;25.288;2023-11-21T09:47:21;95667.66;;;12.76;61.68
50394;BME280;36308;46.312;25.288;2023-11-21T09:49:48;95673.75;;;12.92;61.64
50394;BME280;36308;46.312;25.288;2023-11-21T09:52:26;95671.50;;;13.04;61.48
50394;BME280;36308;46.312;25.288;2023-11-21T09:54:53;95666.56;;;13.17;61.06
50394;BME280;36308;46.312;25.288;2023-11-21T09:57:20;95676.47;;;13.26;61.11
50394;BME280;36308;46.312;25.288;2023-11-21T09:59:53;95668.00;;;13.38;59.51
50394;BME280;36308;46.312;25.288;2023-11-21T10:02:26;95674.69;;;13.46;59.64
50394;BME280;36308;46.312;25.288;2023-11-21T10:04:52;95664.94;;;13.50;59.36
50394;BME280;36308;46.312;25.288;2023-11-21T10:07:19;95660.13;;;13.47;58.85
50394;BME280;36308;46.312;25.288;2023-11-21T10:09:46;95671.03;;;13.61;58.83
50394;BME280;36308;46.312;25.288;2023-11-21T10:12:15;95665.28;;;13.67;57.67
50394;BME280;36308;46.312;25.288;2023-11-21T10:14:41;95668.50;;;13.69;57.90
50394;BME280;36308;46.312;25.288;2023-11-21T10:17:10;95664.66;;;13.75;57.75
50394;BME280;36308;46.312;25.288;2023-11-21T10:19:38;95658.69;;;13.79;57.67
50394;BME280;36308;46.312;25.288;2023-11-21T10:22:05;95661.84;;;13.86;57.60
50394;BME280;36308;46.312;25.288;2023-11-21T10:24:32;95666.09;;;13.92;57.27
50394;BME280;36308;46.312;25.288;2023-11-21T10:26:58;95657.72;;;13.93;57.34
50394;BME280;36308;46.312;25.288;2023-11-21T10:29:23;95653.59;;;14.01;57.63
50394;BME280;36308;46.312;25.288;2023-11-21T10:31:50;95650.75;;;14.11;57.90
50394;BME280;36308;46.312;25.288;2023-11-21T10:34:18;95646.31;;;14.21;57.93
50394;BME280;36308;46.312;25.288;2023-11-21T10:36:44;95647.06;;;14.26;57.18
50394;BME280;36308;46.312;25.288;2023-11-21T10:39:14;95642.97;;;14.29;56.96
50394;BME280;36308;46.312;25.288;2023-11-21T10:41:44;95649.41;;;14.33;56.04
50394;BME280;36308;46.312;25.288;2023-11-21T10:44:10;95638.59;;;14.33;56.64
50394;BME280;36308;46.312;25.288;2023-11-21T10:46:36;95637.66;;;14.43;56.52
50394;BME280;36308;46.312;25.288;2023-11-21T10:49:04;95633.47;;;14.50;56.56
50394;BME280;36308;46.312;25.288;2023-11-21T10:51:29;95628.53;;;14.58;56.42
50394;BME280;36308;46.312;25.288;2023-11-21T10:53:55;95632.78;;;14.64;55.12
50394;BME280;36308;46.312;25.288;2023-11-21T10:56:23;95627.78;;;14.71;54.97
50394;BME280;36308;46.312;25.288;2023-11-21T10:58:49;95632.03;;;14.77;54.48
50394;BME280;36308;46.312;25.288;2023-11-21T11:01:19;95613.81;;;14.83;54.33
50394;BME280;36308;46.312;25.288;2023-11-21T11:03:47;95616.25;;;14.84;54.59
50394;BME280;36308;46.312;25.288;2023-11-21T11:06:14;95610.72;;;14.89;54.46
50394;BME280;36308;46.312;25.288;2023-11-21T11:08:40;95606.28;;;14.99;54.69
50394;BME280;36308;46.312;25.288;2023-11-21T11:11:06;95609.09;;;15.07;54.63
50394;BME280;36308;46.312;25.288;2023-11-21T11:13:33;95596.56;;;15.11;53.80
50394;BME280;36308;46.312;25.288;2023-11-21T11:15:59;95610.72;;;15.22;53.26
50394;BME280;36308;46.312;25.288;2023-11-21T11:18:32;95605.75;;;15.29;53.47
50394;BME280;36308;46.312;25.288;2023-11-21T11:26:56;95596.66;;;15.53;52.99
50394;BME280;36308;46.312;25.288;2023-11-21T11:35:15;95594.97;;;15.71;52.83
50394;BME280;36308;46.312;25.288;2023-11-21T11:37:43;95590.16;;;15.82;53.14
50394;BME280;36308;46.312;25.288;2023-11-21T11:40:11;95591.34;;;15.89;53.02
50394;BME280;36308;46.312;25.288;2023-11-21T11:42:37;95589.34;;;15.95;51.50
50394;BME280;36308;46.312;25.288;2023-11-21T11:45:17;95585.72;;;16.00;51.62
50394;BME280;36308;46.312;25.288;2023-11-21T11:47:43;95578.50;;;16.09;51.75
50394;BME280;36308;46.312;25.288;2023-11-21T11:52:57;95578.56;;;16.17;51.11
50394;BME280;36308;46.312;25.288;2023-11-21T11:55:36;95574.03;;;16.27;51.21
50394;BME280;36308;46.312;25.288;2023-11-21T11:58:05;95581.44;;;16.35;51.05
50394;BME280;36308;46.312;25.288;2023-11-21T12:00:35;95585.06;;;16.44;51.03
50394;BME280;36308;46.312;25.288;2023-11-21T12:03:04;95574.19;;;16.44;50.05
50394;BME280;36308;46.312;25.288;2023-11-21T12:05:34;95577.91;;;16.48;49.74
50394;BME280;36308;46.312;25.288;2023-11-21T12:08:11;95575.28;;;16.43;49.90
50394;BME280;36308;46.312;25.288;2023-11-21T12:10:39;95568.56;;;16.41;49.66
50394;BME280;36308;46.312;25.288;2023-11-21T12:13:10;95569.78;;;16.34;49.50
50394;BME280;36308;46.312;25.288;2023-11-21T12:15:38;95555.38;;;16.25;49.52
50394;BME280;36308;46.312;25.288;2023-11-21T12:18:05;95558.38;;;16.24;50.10
50394;BME280;36308;46.312;25.288;2023-11-21T12:20:31;95558.78;;;16.17;49.98
50394;BME280;36308;46.312;25.288;2023-11-21T12:23:00;95562.03;;;16.05;49.71
50394;BME280;36308;46.312;25.288;2023-11-21T12:25:30;95570.28;;;16.00;50.10
50394;BME280;36308;46.312;25.288;2023-11-21T12:27:58;95570.50;;;15.90;49.99
50394;BME280;36308;46.312;25.288;2023-11-21T12:30:29;95565.16;;;15.85;50.04
50394;BME280;36308;46.312;25.288;2023-11-21T12:32:58;95563.16;;;15.76;49.99
50394;BME280;36308;46.312;25.288;2023-11-21T12:35:26;95551.97;;;15.64;49.98
50394;BME280;36308;46.312;25.288;2023-11-21T12:37:54;95551.81;;;15.61;50.42
50394;BME280;36308;46.312;25.288;2023-11-21T12:40:19;95547.38;;;15.51;50.70
50394;BME280;36308;46.312;25.288;2023-11-21T12:42:49;95546.28;;;15.38;50.73
50394;BME280;36308;46.312;25.288;2023-11-21T12:45:20;95554.97;;;15.35;50.37
50394;BME280;36308;46.312;25.288;2023-11-21T12:47:48;95558.88;;;15.29;50.55
50394;BME280;36308;46.312;25.288;2023-11-21T12:50:21;95559.00;;;15.24;51.07
50394;BME280;36308;46.312;25.288;2023-11-21T12:52:50;95563.97;;;15.16;50.81
50394;BME280;36308;46.312;25.288;2023-11-21T12:55:22;95564.97;;;15.07;50.75
50394;BME280;36308;46.312;25.288;2023-11-21T12:57:53;95569.97;;;15.00;51.24
50394;BME280;36308;46.312;25.288;2023-11-21T13:00:34;95559.81;;;14.91;51.27
50394;BME280;36308;46.312;25.288;2023-11-21T13:03:03;95556.69;;;14.84;51.37
50394;BME280;36308;46.312;25.288;2023-11-21T13:05:36;95553.03;;;14.75;51.58
50394;BME280;36308;46.312;25.288;2023-11-21T13:08:11;95552.63;;;14.68;51.80
50394;BME280;36308;46.312;25.288;2023-11-21T13:10:40;95546.28;;;14.59;51.44
50394;BME280;36308;46.312;25.288;2023-11-21T13:13:08;95550.72;;;14.49;51.62
50394;BME280;36308;46.312;25.288;2023-11-21T13:15:46;95554.09;;;14.41;51.59
50394;BME280;36308;46.312;25.288;2023-11-21T13:18:12;95563.38;;;14.35;52.22